sensor_id;sensor_type;location;lat;lon;timestamp;P1;durP1;ratioP1;P2;durP2;ratioP2
4517;SDS011;2271;49.464;11.070;2023-03-23T00:02:19;5.10;;;3.35;;
4517;SDS011;2271;49.464;11.070;2023-03-23T00:04:48;3.20;;;2.90;;
4517;SDS011;2271;49.464;11.070;2023-03-23T00:07:14;2.95;;;2.35;;
4517;SDS011;2271;49.464;11.070;2023-03-23T00:09:45;4.22;;;2.72;;
4517;SDS011;2271;49.464;11.070;2023-03-23T00:12:22;5.85;;;2.75;;
4517;SDS011;2271;49.464;11.070;2023-03-23T00:14:54;2.85;;;2.53;;
4517;SDS011;2271;49.464;11.070;2023-03-23T00:17:20;3.63;;;2.75;;
4517;SDS011;2271;49.464;11.070;2023-03-23T00:19:48;4.10;;;3.42;;
4517;SDS011;2271;49.464;11.070;2023-03-23T00:22:14;7.32;;;3.20;;
4517;SDS011;2271;49.464;11.070;2023-03-23T00:24:42;4.40;;;3.60;;
4517;SDS011;2271;49.464;11.070;2023-03-23T00:27:09;4.88;;;2.72;;
4517;SDS011;2271;49.464;11.070;2023-03-23T00:29:37;4.57;;;3.22;;
4517;SDS011;2271;49.464;11.070;2023-03-23T00:32:05;4.90;;;3.00;;
4517;SDS011;2271;49.464;11.070;2023-03-23T00:34:31;3.50;;;2.45;;
4517;SDS011;2271;49.464;11.070;2023-03-23T00:36:57;3.05;;;2.75;;
4517;SDS011;2271;49.464;11.070;2023-03-23T00:39:24;4.75;;;2.60;;
4517;SDS011;2271;49.464;11.070;2023-03-23T00:41:51;4.25;;;2.45;;
4517;SDS011;2271;49.464;11.070;2023-03-23T00:44:19;6.78;;;2.50;;
4517;SDS011;2271;49.464;11.070;2023-03-23T00:46:48;4.57;;;2.53;;
4517;SDS011;2271;49.464;11.070;2023-03-23T00:49:16;2.42;;;2.17;;
4517;SDS011;2271;49.464;11.070;2023-03-23T00:51:49;2.20;;;1.98;;
4517;SDS011;2271;49.464;11.070;2023-03-23T00:54:16;5.32;;;2.63;;
4517;SDS011;2271;49.464;11.070;2023-03-23T00:56:42;4.10;;;2.22;;
4517;SDS011;2271;49.464;11.070;2023-03-23T00:59:08;3.78;;;2.33;;
4517;SDS011;2271;49.464;11.070;2023-03-23T01:01:33;3.15;;;2.33;;
4517;SDS011;2271;49.464;11.070;2023-03-23T01:04:00;3.97;;;2.70;;
4517;SDS011;2271;49.464;11.070;2023-03-23T01:06:29;4.10;;;2.28;;
4517;SDS011;2271;49.464;11.070;2023-03-23T01:09:00;4.40;;;2.60;;
4517;SDS011;2271;49.464;11.070;2023-03-23T01:11:28;3.45;;;2.30;;
4517;SDS011;2271;49.464;11.070;2023-03-23T01:13:54;3.63;;;2.70;;
4517;SDS011;2271;49.464;11.070;2023-03-23T01:16:20;4.53;;;3.05;;
4517;SDS011;2271;49.464;11.070;2023-03-23T01:18:46;4.40;;;2.33;;
4517;SDS011;2271;49.464;11.070;2023-03-23T01:21:13;3.20;;;2.53;;
4517;SDS011;2271;49.464;11.070;2023-03-23T01:23:41;3.80;;;2.50;;
4517;SDS011;2271;49.464;11.070;2023-03-23T01:26:10;3.08;;;2.40;;
4517;SDS011;2271;49.464;11.070;2023-03-23T01:28:44;2.97;;;2.10;;
4517;SDS011;2271;49.464;11.070;2023-03-23T01:31:11;3.40;;;2.53;;
4517;SDS011;2271;49.464;11.070;2023-03-23T01:33:39;3.42;;;2.10;;
4517;SDS011;2271;49.464;11.070;2023-03-23T01:36:06;3.90;;;1.92;;
4517;SDS011;2271;49.464;11.070;2023-03-23T01:38:35;3.70;;;1.80;;
4517;SDS011;2271;49.464;11.070;2023-03-23T01:41:01;5.20;;;2.20;;
4517;SDS011;2271;49.464;11.070;2023-03-23T01:43:27;2.20;;;2.00;;
4517;SDS011;2271;49.464;11.070;2023-03-23T01:45:53;5.05;;;1.77;;
4517;SDS011;2271;49.464;11.070;2023-03-23T01:51:06;2.60;;;2.28;;
4517;SDS011;2271;49.464;11.070;2023-03-23T01:53:38;5.53;;;2.63;;
4517;SDS011;2271;49.464;11.070;2023-03-23T01:56:11;3.40;;;2.28;;
4517;SDS011;2271;49.464;11.070;2023-03-23T01:58:39;3.55;;;2.30;;
4517;SDS011;2271;49.464;11.070;2023-03-23T02:01:07;4.28;;;2.10;;
4517;SDS011;2271;49.464;11.070;2023-03-23T02:03:41;2.22;;;1.85;;
4517;SDS011;2271;49.464;11.070;2023-03-23T02:06:08;1.70;;;1.60;;
4517;SDS011;2271;49.464;11.070;2023-03-23T02:08:34;3.25;;;1.48;;
4517;SDS011;2271;49.464;11.070;2023-03-23T02:11:01;1.60;;;1.50;;
4517;SDS011;2271;49.464;11.070;2023-03-23T02:13:38;2.13;;;1.80;;
4517;SDS011;2271;49.464;11.070;2023-03-23T02:16:05;2.65;;;1.98;;
4517;SDS011;2271;49.464;11.070;2023-03-23T02:18:49;3.45;;;1.77;;
4517;SDS011;2271;49.464;11.070;2023-03-23T02:36:32;2.38;;;1.40;;
4517;SDS011;2271;49.464;11.070;2023-03-23T02:41:44;3.67;;;1.70;;
4517;SDS011;2271;49.464;11.070;2023-03-23T02:44:15;4.25;;;1.58;;
4517;SDS011;2271;49.464;11.070;2023-03-23T02:46:42;3.47;;;2.10;;
4517;SDS011;2271;49.464;11.070;2023-03-23T02:49:10;2.42;;;1.95;;
4517;SDS011;2271;49.464;11.070;2023-03-23T02:51:39;2.70;;;1.60;;
4517;SDS011;2271;49.464;11.070;2023-03-23T02:54:05;1.75;;;1.48;;
4517;SDS011;2271;49.464;11.070;2023-03-23T02:56:32;2.78;;;1.50;;
4517;SDS011;2271;49.464;11.070;2023-03-23T02:59:00;2.10;;;1.52;;
4517;SDS011;2271;49.464;11.070;2023-03-23T03:03:55;1.35;;;1.25;;
4517;SDS011;2271;49.464;11.070;2023-03-23T03:06:36;2.25;;;1.30;;
4517;SDS011;2271;49.464;11.070;2023-03-23T03:11:49;4.78;;;1.48;;
4517;SDS011;2271;49.464;11.070;2023-03-23T03:14:21;2.10;;;1.55;;
4517;SDS011;2271;49.464;11.070;2023-03-23T03:17:25;1.35;;;1.20;;
4517;SDS011;2271;49.464;11.070;2023-03-23T03:19:50;1.38;;;1.27;;
4517;SDS011;2271;49.464;11.070;2023-03-23T03:22:22;2.38;;;1.30;;
4517;SDS011;2271;49.464;11.070;2023-03-23T03:24:53;3.30;;;1.30;;
4517;SDS011;2271;49.464;11.070;2023-03-23T03:27:21;2.30;;;1.20;;
4517;SDS011;2271;49.464;11.070;2023-03-23T03:29:51;1.33;;;1.23;;
4517;SDS011;2271;49.464;11.070;2023-03-23T03:32:24;1.40;;;1.30;;
4517;SDS011;2271;49.464;11.070;2023-03-23T03:34:56;2.47;;;1.20;;
4517;SDS011;2271;49.464;11.070;2023-03-23T03:37:24;1.55;;;1.40;;
4517;SDS011;2271;49.464;11.070;2023-03-23T03:39:50;2.15;;;1.23;;
4517;SDS011;2271;49.464;11.070;2023-03-23T03:42:16;3.47;;;1.30;;
4517;SDS011;2271;49.464;11.070;2023-03-23T03:44:41;3.40;;;1.75;;
4517;SDS011;2271;49.464;11.070;2023-03-23T03:47:08;3.30;;;1.45;;
4517;SDS011;2271;49.464;11.070;2023-03-23T03:49:33;3.78;;;1.38;;
4517;SDS011;2271;49.464;11.070;2023-03-23T03:52:00;1.67;;;1.40;;
4517;SDS011;2271;49.464;11.070;2023-03-23T03:54:25;1.95;;;1.48;;
4517;SDS011;2271;49.464;11.070;2023-03-23T03:56:51;1.70;;;1.20;;
4517;SDS011;2271;49.464;11.070;2023-03-23T03:59:22;2.85;;;1.20;;
4517;SDS011;2271;49.464;11.070;2023-03-23T04:01:48;2.35;;;1.60;;
4517;SDS011;2271;49.464;11.070;2023-03-23T04:04:19;2.03;;;1.42;;
4517;SDS011;2271;49.464;11.070;2023-03-23T04:06:45;1.65;;;1.35;;
4517;SDS011;2271;49.464;11.070;2023-03-23T04:09:13;5.43;;;1.40;;
4517;SDS011;2271;49.464;11.070;2023-03-23T04:11:39;3.08;;;1.02;;
4517;SDS011;2271;49.464;11.070;2023-03-23T04:14:05;2.00;;;1.48;;
4517;SDS011;2271;49.464;11.070;2023-03-23T04:16:31;2.17;;;1.60;;
4517;SDS011;2271;49.464;11.070;2023-03-23T04:18:59;1.10;;;1.00;;
4517;SDS011;2271;49.464;11.070;2023-03-23T04:21:25;2.45;;;1.88;;
4517;SDS011;2271;49.464;11.070;2023-03-23T04:23:53;2.33;;;1.83;;
4517;SDS011;2271;49.464;11.070;2023-03-23T04:26:21;2.25;;;1.30;;
4517;SDS011;2271;49.464;11.070;2023-03-23T04:28:46;3.72;;;1.48;;
4517;SDS011;2271;49.464;11.070;2023-03-23T04:31:12;2.10;;;1.45;;
4517;SDS011;2271;49.464;11.070;2023-03-23T04:33:37;1.80;;;1.27;;
4517;SDS011;2271;49.464;11.070;2023-03-23T04:36:06;1.35;;;1.17;;
4517;SDS011;2271;49.464;11.070;2023-03-23T04:38:32;3.97;;;1.33;;
4517;SDS011;2271;49.464;11.070;2023-03-23T04:40:59;1.27;;;1.17;;
4517;SDS011;2271;49.464;11.070;2023-03-23T04:43:27;1.45;;;1.30;;
4517;SDS011;2271;49.464;11.070;2023-03-23T04:45:57;1.40;;;1.25;;
4517;SDS011;2271;49.464;11.070;2023-03-23T04:48:25;2.95;;;1.50;;
4517;SDS011;2271;49.464;11.070;2023-03-23T04:50:52;2.50;;;1.27;;
4517;SDS011;2271;49.464;11.070;2023-03-23T04:53:19;3.05;;;1.40;;
4517;SDS011;2271;49.464;11.070;2023-03-23T04:55:45;2.25;;;1.45;;
4517;SDS011;2271;49.464;11.070;2023-03-23T04:58:12;3.22;;;1.33;;
4517;SDS011;2271;49.464;11.070;2023-03-23T05:00:39;1.48;;;1.38;;
4517;SDS011;2271;49.464;11.070;2023-03-23T05:03:05;4.32;;;1.17;;
4517;SDS011;2271;49.464;11.070;2023-03-23T05:05:33;2.75;;;1.40;;
4517;SDS011;2271;49.464;11.070;2023-03-23T05:07:59;4.07;;;1.38;;
4517;SDS011;2271;49.464;11.070;2023-03-23T05:10:25;4.88;;;1.70;;
4517;SDS011;2271;49.464;11.070;2023-03-23T05:12:52;1.50;;;1.20;;
4517;SDS011;2271;49.464;11.070;2023-03-23T05:15:18;1.77;;;1.35;;
4517;SDS011;2271;49.464;11.070;2023-03-23T05:17:44;3.53;;;1.30;;
4517;SDS011;2271;49.464;11.070;2023-03-23T05:20:10;1.40;;;1.30;;
4517;SDS011;2271;49.464;11.070;2023-03-23T05:22:38;3.53;;;1.25;;
4517;SDS011;2271;49.464;11.070;2023-03-23T05:25:04;3.00;;;1.73;;
4517;SDS011;2271;49.464;11.070;2023-03-23T05:27:31;1.80;;;1.58;;
4517;SDS011;2271;49.464;11.070;2023-03-23T05:29:57;3.63;;;1.63;;
4517;SDS011;2271;49.464;11.070;2023-03-23T05:32:26;2.72;;;1.80;;
4517;SDS011;2271;49.464;11.070;2023-03-23T05:34:56;1.92;;;1.77;;
4517;SDS011;2271;49.464;11.070;2023-03-23T05:37:23;3.13;;;1.40;;
4517;SDS011;2271;49.464;11.070;2023-03-23T05:39:50;9.55;;;2.03;;
4517;SDS011;2271;49.464;11.070;2023-03-23T05:42:20;2.30;;;1.40;;
4517;SDS011;2271;49.464;11.070;2023-03-23T05:44:47;3.00;;;1.73;;
4517;SDS011;2271;49.464;11.070;2023-03-23T05:47:12;4.03;;;1.50;;
4517;SDS011;2271;49.464;11.070;2023-03-23T05:49:38;2.38;;;1.80;;
4517;SDS011;2271;49.464;11.070;2023-03-23T05:52:04;2.38;;;1.83;;
4517;SDS011;2271;49.464;11.070;2023-03-23T05:54:30;2.42;;;1.50;;
4517;SDS011;2271;49.464;11.070;2023-03-23T05:56:55;1.50;;;1.40;;
4517;SDS011;2271;49.464;11.070;2023-03-23T05:59:21;4.43;;;1.80;;
4517;SDS011;2271;49.464;11.070;2023-03-23T06:01:46;1.83;;;1.63;;
4517;SDS011;2271;49.464;11.070;2023-03-23T06:04:12;2.13;;;1.40;;
4517;SDS011;2271;49.464;11.070;2023-03-23T06:06:38;2.20;;;1.58;;
4517;SDS011;2271;49.464;11.070;2023-03-23T06:09:04;1.55;;;1.42;;
4517;SDS011;2271;49.464;11.070;2023-03-23T06:11:30;3.17;;;1.90;;
4517;SDS011;2271;49.464;11.070;2023-03-23T06:13:55;1.92;;;1.60;;
4517;SDS011;2271;49.464;11.070;2023-03-23T06:16:21;3.25;;;1.73;;
4517;SDS011;2271;49.464;11.070;2023-03-23T06:18:47;1.92;;;1.70;;
4517;SDS011;2271;49.464;11.070;2023-03-23T06:21:13;1.98;;;1.48;;
4517;SDS011;2271;49.464;11.070;2023-03-23T06:23:39;4.18;;;1.55;;
4517;SDS011;2271;49.464;11.070;2023-03-23T06:26:05;1.65;;;1.55;;
4517;SDS011;2271;49.464;11.070;2023-03-23T06:28:33;5.57;;;1.52;;
4517;SDS011;2271;49.464;11.070;2023-03-23T06:31:02;1.95;;;1.60;;
4517;SDS011;2271;49.464;11.070;2023-03-23T06:33:31;2.72;;;1.90;;
4517;SDS011;2271;49.464;11.070;2023-03-23T06:36:01;6.30;;;1.80;;
4517;SDS011;2271;49.464;11.070;2023-03-23T06:38:27;4.18;;;2.03;;
4517;SDS011;2271;49.464;11.070;2023-03-23T06:40:53;2.28;;;1.77;;
4517;SDS011;2271;49.464;11.070;2023-03-23T06:43:20;2.80;;;1.60;;
4517;SDS011;2271;49.464;11.070;2023-03-23T06:45:46;3.28;;;1.92;;
4517;SDS011;2271;49.464;11.070;2023-03-23T06:48:11;5.65;;;2.22;;
4517;SDS011;2271;49.464;11.070;2023-03-23T06:50:37;7.55;;;2.60;;
4517;SDS011;2271;49.464;11.070;2023-03-23T06:53:03;5.88;;;2.03;;
4517;SDS011;2271;49.464;11.070;2023-03-23T06:55:29;2.45;;;1.92;;
4517;SDS011;2271;49.464;11.070;2023-03-23T06:57:55;4.90;;;2.08;;
4517;SDS011;2271;49.464;11.070;2023-03-23T07:00:24;3.42;;;1.90;;
4517;SDS011;2271;49.464;11.070;2023-03-23T07:02:50;5.32;;;1.92;;
4517;SDS011;2271;49.464;11.070;2023-03-23T07:05:16;3.33;;;2.15;;
4517;SDS011;2271;49.464;11.070;2023-03-23T07:07:41;3.28;;;1.95;;
4517;SDS011;2271;49.464;11.070;2023-03-23T07:10:07;5.57;;;2.20;;
4517;SDS011;2271;49.464;11.070;2023-03-23T07:12:35;6.32;;;2.05;;
4517;SDS011;2271;49.464;11.070;2023-03-23T07:15:01;7.93;;;2.33;;
4517;SDS011;2271;49.464;11.070;2023-03-23T07:17:32;5.45;;;2.80;;
4517;SDS011;2271;49.464;11.070;2023-03-23T07:19:58;3.42;;;2.15;;
4517;SDS011;2271;49.464;11.070;2023-03-23T07:22:23;10.93;;;2.50;;
4517;SDS011;2271;49.464;11.070;2023-03-23T07:24:50;4.05;;;2.53;;
4517;SDS011;2271;49.464;11.070;2023-03-23T07:27:16;4.82;;;2.63;;
4517;SDS011;2271;49.464;11.070;2023-03-23T07:29:41;2.75;;;1.92;;
4517;SDS011;2271;49.464;11.070;2023-03-23T07:32:09;3.03;;;1.70;;
4517;SDS011;2271;49.464;11.070;2023-03-23T07:34:36;3.90;;;1.90;;
4517;SDS011;2271;49.464;11.070;2023-03-23T07:37:03;8.00;;;2.42;;
4517;SDS011;2271;49.464;11.070;2023-03-23T07:39:28;3.33;;;1.90;;
4517;SDS011;2271;49.464;11.070;2023-03-23T07:41:54;3.42;;;1.85;;
4517;SDS011;2271;49.464;11.070;2023-03-23T07:44:20;5.07;;;1.92;;
4517;SDS011;2271;49.464;11.070;2023-03-23T07:46:46;4.13;;;2.65;;
4517;SDS011;2271;49.464;11.070;2023-03-23T07:49:12;2.95;;;2.20;;
4517;SDS011;2271;49.464;11.070;2023-03-23T07:51:38;3.05;;;2.28;;
4517;SDS011;2271;49.464;11.070;2023-03-23T07:54:04;9.20;;;1.95;;
4517;SDS011;2271;49.464;11.070;2023-03-23T07:56:32;5.28;;;2.00;;
4517;SDS011;2271;49.464;11.070;2023-03-23T07:58:59;5.82;;;2.35;;
4517;SDS011;2271;49.464;11.070;2023-03-23T08:01:25;4.45;;;1.80;;
4517;SDS011;2271;49.464;11.070;2023-03-23T08:03:52;4.53;;;2.00;;
4517;SDS011;2271;49.464;11.070;2023-03-23T08:06:19;11.23;;;2.58;;
4517;SDS011;2271;49.464;11.070;2023-03-23T08:08:46;4.65;;;2.60;;
4517;SDS011;2271;49.464;11.070;2023-03-23T08:11:12;9.35;;;2.80;;
4517;SDS011;2271;49.464;11.070;2023-03-23T08:13:40;4.68;;;2.63;;
4517;SDS011;2271;49.464;11.070;2023-03-23T08:16:06;3.75;;;2.45;;
4517;SDS011;2271;49.464;11.070;2023-03-23T08:18:34;3.20;;;2.10;;
4517;SDS011;2271;49.464;11.070;2023-03-23T08:21:00;7.20;;;1.80;;
4517;SDS011;2271;49.464;11.070;2023-03-23T08:23:29;4.75;;;2.30;;
4517;SDS011;2271;49.464;11.070;2023-03-23T08:25:55;3.47;;;2.30;;
4517;SDS011;2271;49.464;11.070;2023-03-23T08:28:21;5.07;;;2.03;;
4517;SDS011;2271;49.464;11.070;2023-03-23T08:30:47;3.15;;;1.95;;
4517;SDS011;2271;49.464;11.070;2023-03-23T08:33:13;4.05;;;2.30;;
4517;SDS011;2271;49.464;11.070;2023-03-23T08:35:39;6.25;;;3.10;;
4517;SDS011;2271;49.464;11.070;2023-03-23T08:38:04;3.88;;;2.70;;
4517;SDS011;2271;49.464;11.070;2023-03-23T08:40:31;7.75;;;2.75;;
4517;SDS011;2271;49.464;11.070;2023-03-23T08:42:57;3.35;;;2.80;;
4517;SDS011;2271;49.464;11.070;2023-03-23T08:45:23;3.88;;;3.03;;
4517;SDS011;2271;49.464;11.070;2023-03-23T08:47:51;4.80;;;2.65;;
4517;SDS011;2271;49.464;11.070;2023-03-23T08:50:21;4.05;;;2.60;;
4517;SDS011;2271;49.464;11.070;2023-03-23T08:52:50;4.50;;;2.53;;
4517;SDS011;2271;49.464;11.070;2023-03-23T08:55:17;4.63;;;2.63;;
4517;SDS011;2271;49.464;11.070;2023-03-23T08:57:44;9.27;;;2.65;;
4517;SDS011;2271;49.464;11.070;2023-03-23T09:00:11;4.20;;;2.65;;
4517;SDS011;2271;49.464;11.070;2023-03-23T09:02:41;9.90;;;2.95;;
4517;SDS011;2271;49.464;11.070;2023-03-23T09:05:08;6.65;;;3.35;;
4517;SDS011;2271;49.464;11.070;2023-03-23T09:07:36;6.05;;;2.78;;
4517;SDS011;2271;49.464;11.070;2023-03-23T09:10:03;7.78;;;2.88;;
4517;SDS011;2271;49.464;11.070;2023-03-23T09:12:29;5.78;;;2.47;;
4517;SDS011;2271;49.464;11.070;2023-03-23T09:14:55;4.85;;;2.22;;
4517;SDS011;2271;49.464;11.070;2023-03-23T09:17:21;2.60;;;2.13;;
4517;SDS011;2271;49.464;11.070;2023-03-23T09:19:47;2.97;;;2.40;;
4517;SDS011;2271;49.464;11.070;2023-03-23T09:22:13;7.15;;;2.58;;
4517;SDS011;2271;49.464;11.070;2023-03-23T09:24:40;7.40;;;2.42;;
4517;SDS011;2271;49.464;11.070;2023-03-23T09:27:06;6.13;;;2.42;;
4517;SDS011;2271;49.464;11.070;2023-03-23T09:29:32;3.80;;;2.13;;
4517;SDS011;2271;49.464;11.070;2023-03-23T09:31:57;4.28;;;2.15;;
4517;SDS011;2271;49.464;11.070;2023-03-23T09:34:23;5.60;;;2.60;;
4517;SDS011;2271;49.464;11.070;2023-03-23T09:36:48;3.50;;;2.50;;
4517;SDS011;2271;49.464;11.070;2023-03-23T09:39:14;3.83;;;2.22;;
4517;SDS011;2271;49.464;11.070;2023-03-23T09:50:41;3.90;;;1.98;;
4517;SDS011;2271;49.464;11.070;2023-03-23T09:55:44;3.08;;;2.00;;
4517;SDS011;2271;49.464;11.070;2023-03-23T09:58:22;5.18;;;2.70;;
4517;SDS011;2271;49.464;11.070;2023-03-23T10:01:00;3.25;;;2.03;;
4517;SDS011;2271;49.464;11.070;2023-03-23T10:03:34;3.28;;;1.90;;
4517;SDS011;2271;49.464;11.070;2023-03-23T10:06:10;3.10;;;2.05;;
4517;SDS011;2271;49.464;11.070;2023-03-23T10:08:49;5.97;;;2.33;;
4517;SDS011;2271;49.464;11.070;2023-03-23T10:16:43;4.00;;;2.40;;
4517;SDS011;2271;49.464;11.070;2023-03-23T10:21:58;5.38;;;2.38;;
4517;SDS011;2271;49.464;11.070;2023-03-23T10:24:35;2.75;;;2.40;;
4517;SDS011;2271;49.464;11.070;2023-03-23T10:29:43;5.03;;;2.03;;
4517;SDS011;2271;49.464;11.070;2023-03-23T10:32:16;4.18;;;2.13;;
4517;SDS011;2271;49.464;11.070;2023-03-23T10:34:47;3.40;;;2.10;;
4517;SDS011;2271;49.464;11.070;2023-03-23T10:37:25;5.45;;;2.67;;
4517;SDS011;2271;49.464;11.070;2023-03-23T10:39:59;6.20;;;2.67;;
4517;SDS011;2271;49.464;11.070;2023-03-23T10:42:29;3.50;;;2.05;;
4517;SDS011;2271;49.464;11.070;2023-03-23T10:44:57;2.45;;;1.98;;
4517;SDS011;2271;49.464;11.070;2023-03-23T10:47:25;4.03;;;2.15;;
4517;SDS011;2271;49.464;11.070;2023-03-23T10:52:38;1.80;;;1.70;;
4517;SDS011;2271;49.464;11.070;2023-03-23T10:57:37;1.95;;;1.30;;
4517;SDS011;2271;49.464;11.070;2023-03-23T11:02:43;1.67;;;1.10;;
4517;SDS011;2271;49.464;11.070;2023-03-23T11:05:24;1.58;;;1.30;;
4517;SDS011;2271;49.464;11.070;2023-03-23T11:07:57;2.22;;;1.50;;
4517;SDS011;2271;49.464;11.070;2023-03-23T11:10:35;7.70;;;1.30;;
4517;SDS011;2271;49.464;11.070;2023-03-23T11:13:03;1.92;;;1.33;;
4517;SDS011;2271;49.464;11.070;2023-03-23T11:18:00;1.70;;;0.98;;
4517;SDS011;2271;49.464;11.070;2023-03-23T11:20:28;1.83;;;1.17;;
4517;SDS011;2271;49.464;11.070;2023-03-23T11:22:55;2.10;;;1.60;;
4517;SDS011;2271;49.464;11.070;2023-03-23T11:25:21;1.23;;;1.00;;
4517;SDS011;2271;49.464;11.070;2023-03-23T11:27:47;1.70;;;1.25;;
4517;SDS011;2271;49.464;11.070;2023-03-23T11:30:25;5.53;;;1.50;;
4517;SDS011;2271;49.464;11.070;2023-03-23T11:32:55;2.05;;;1.20;;
4517;SDS011;2271;49.464;11.070;2023-03-23T11:35:27;4.18;;;1.58;;
4517;SDS011;2271;49.464;11.070;2023-03-23T11:37:54;2.38;;;1.35;;
4517;SDS011;2271;49.464;11.070;2023-03-23T11:40:25;1.92;;;1.50;;
4517;SDS011;2271;49.464;11.070;2023-03-23T11:43:00;3.08;;;1.30;;
4517;SDS011;2271;49.464;11.070;2023-03-23T11:45:38;1.58;;;1.08;;
4517;SDS011;2271;49.464;11.070;2023-03-23T11:51:06;1.83;;;1.35;;
4517;SDS011;2271;49.464;11.070;2023-03-23T11:58:59;3.63;;;1.30;;
4517;SDS011;2271;49.464;11.070;2023-03-23T12:17:34;2.25;;;1.25;;
4517;SDS011;2271;49.464;11.070;2023-03-23T12:23:05;2.45;;;1.10;;
4517;SDS011;2271;49.464;11.070;2023-03-23T12:31:18;1.70;;;1.08;;
4517;SDS011;2271;49.464;11.070;2023-03-23T12:47:38;1.73;;;1.05;;
4517;SDS011;2271;49.464;11.070;2023-03-23T12:50:14;2.67;;;0.90;;
4517;SDS011;2271;49.464;11.070;2023-03-23T12:56:20;1.10;;;1.00;;
4517;SDS011;2271;49.464;11.070;2023-03-23T12:58:48;1.75;;;1.13;;
4517;SDS011;2271;49.464;11.070;2023-03-23T13:01:25;0.68;;;0.65;;
4517;SDS011;2271;49.464;11.070;2023-03-23T13:04:05;1.08;;;0.85;;
4517;SDS011;2271;49.464;11.070;2023-03-23T13:06:36;1.05;;;0.77;;
4517;SDS011;2271;49.464;11.070;2023-03-23T13:09:16;3.85;;;1.05;;
4517;SDS011;2271;49.464;11.070;2023-03-23T13:11:52;2.25;;;0.73;;
4517;SDS011;2271;49.464;11.070;2023-03-23T13:14:26;0.88;;;0.88;;
4517;SDS011;2271;49.464;11.070;2023-03-23T13:20:16;0.75;;;0.65;;
4517;SDS011;2271;49.464;11.070;2023-03-23T13:26:06;1.27;;;0.80;;
4517;SDS011;2271;49.464;11.070;2023-03-23T13:31:16;1.42;;;1.10;;
4517;SDS011;2271;49.464;11.070;2023-03-23T13:33:50;1.27;;;1.17;;
4517;SDS011;2271;49.464;11.070;2023-03-23T13:36:33;1.10;;;1.00;;
4517;SDS011;2271;49.464;11.070;2023-03-23T13:39:02;6.65;;;1.30;;
4517;SDS011;2271;49.464;11.070;2023-03-23T13:41:32;2.55;;;1.10;;
4517;SDS011;2271;49.464;11.070;2023-03-23T13:44:19;2.72;;;1.15;;
4517;SDS011;2271;49.464;11.070;2023-03-23T13:47:06;4.65;;;0.90;;
4517;SDS011;2271;49.464;11.070;2023-03-23T13:49:45;1.13;;;0.90;;
4517;SDS011;2271;49.464;11.070;2023-03-23T13:52:16;6.70;;;1.00;;
4517;SDS011;2271;49.464;11.070;2023-03-23T14:05:38;1.70;;;0.90;;
4517;SDS011;2271;49.464;11.070;2023-03-23T14:13:18;5.55;;;1.00;;
4517;SDS011;2271;49.464;11.070;2023-03-23T14:16:05;2.42;;;0.95;;
4517;SDS011;2271;49.464;11.070;2023-03-23T14:18:58;2.95;;;1.20;;
4517;SDS011;2271;49.464;11.070;2023-03-23T14:21:33;1.73;;;1.25;;
4517;SDS011;2271;49.464;11.070;2023-03-23T14:27:00;1.30;;;0.90;;
4517;SDS011;2271;49.464;11.070;2023-03-23T14:29:30;1.00;;;0.90;;
4517;SDS011;2271;49.464;11.070;2023-03-23T14:31:56;1.83;;;1.10;;
4517;SDS011;2271;49.464;11.070;2023-03-23T14:34:24;2.60;;;1.35;;
4517;SDS011;2271;49.464;11.070;2023-03-23T14:36:52;2.67;;;1.30;;
4517;SDS011;2271;49.464;11.070;2023-03-23T14:39:20;1.52;;;1.17;;
4517;SDS011;2271;49.464;11.070;2023-03-23T14:41:47;2.05;;;1.25;;
4517;SDS011;2271;49.464;11.070;2023-03-23T14:44:19;2.35;;;1.20;;
4517;SDS011;2271;49.464;11.070;2023-03-23T14:47:00;1.17;;;1.08;;
4517;SDS011;2271;49.464;11.070;2023-03-23T14:49:31;1.52;;;1.42;;
4517;SDS011;2271;49.464;11.070;2023-03-23T14:52:07;4.53;;;1.25;;
4517;SDS011;2271;49.464;11.070;2023-03-23T14:54:35;1.75;;;1.35;;
4517;SDS011;2271;49.464;11.070;2023-03-23T14:57:05;2.92;;;1.40;;
4517;SDS011;2271;49.464;11.070;2023-03-23T14:59:43;3.03;;;1.40;;
4517;SDS011;2271;49.464;11.070;2023-03-23T15:02:11;2.30;;;1.50;;
4517;SDS011;2271;49.464;11.070;2023-03-23T15:04:41;1.73;;;1.30;;
4517;SDS011;2271;49.464;11.070;2023-03-23T15:07:10;1.55;;;1.17;;
4517;SDS011;2271;49.464;11.070;2023-03-23T15:09:39;3.13;;;1.33;;
4517;SDS011;2271;49.464;11.070;2023-03-23T15:12:09;3.25;;;1.02;;
4517;SDS011;2271;49.464;11.070;2023-03-23T15:14:52;2.03;;;1.30;;
4517;SDS011;2271;49.464;11.070;2023-03-23T15:17:22;3.58;;;1.67;;
4517;SDS011;2271;49.464;11.070;2023-03-23T15:19:50;3.08;;;1.90;;
4517;SDS011;2271;49.464;11.070;2023-03-23T15:22:22;3.05;;;2.00;;
4517;SDS011;2271;49.464;11.070;2023-03-23T15:25:09;1.63;;;1.42;;
4517;SDS011;2271;49.464;11.070;2023-03-23T15:27:42;2.80;;;1.30;;
4517;SDS011;2271;49.464;11.070;2023-03-23T15:32:42;3.55;;;1.02;;
4517;SDS011;2271;49.464;11.070;2023-03-23T15:35:14;1.45;;;1.30;;
4517;SDS011;2271;49.464;11.070;2023-03-23T15:37:46;2.92;;;1.08;;
4517;SDS011;2271;49.464;11.070;2023-03-23T15:40:33;2.28;;;1.42;;
4517;SDS011;2271;49.464;11.070;2023-03-23T15:48:31;1.92;;;1.30;;
4517;SDS011;2271;49.464;11.070;2023-03-23T15:50:58;3.22;;;1.17;;
4517;SDS011;2271;49.464;11.070;2023-03-23T15:53:28;2.53;;;1.30;;
4517;SDS011;2271;49.464;11.070;2023-03-23T15:56:00;2.00;;;1.60;;
4517;SDS011;2271;49.464;11.070;2023-03-23T15:58:27;1.92;;;1.42;;
4517;SDS011;2271;49.464;11.070;2023-03-23T16:00:53;1.92;;;1.48;;
4517;SDS011;2271;49.464;11.070;2023-03-23T16:03:29;1.55;;;1.42;;
4517;SDS011;2271;49.464;11.070;2023-03-23T16:06:18;1.98;;;1.60;;
4517;SDS011;2271;49.464;11.070;2023-03-23T16:08:46;1.90;;;1.52;;
4517;SDS011;2271;49.464;11.070;2023-03-23T16:11:13;1.83;;;1.30;;
4517;SDS011;2271;49.464;11.070;2023-03-23T16:13:40;3.20;;;1.52;;
4517;SDS011;2271;49.464;11.070;2023-03-23T16:16:06;2.78;;;1.50;;
4517;SDS011;2271;49.464;11.070;2023-03-23T16:18:38;2.88;;;1.58;;
4517;SDS011;2271;49.464;11.070;2023-03-23T16:21:04;2.03;;;1.83;;
4517;SDS011;2271;49.464;11.070;2023-03-23T16:23:30;2.05;;;1.60;;
4517;SDS011;2271;49.464;11.070;2023-03-23T16:25:55;2.83;;;1.80;;
4517;SDS011;2271;49.464;11.070;2023-03-23T16:28:21;3.42;;;1.95;;
4517;SDS011;2271;49.464;11.070;2023-03-23T16:30:46;3.08;;;1.80;;
4517;SDS011;2271;49.464;11.070;2023-03-23T16:33:12;3.90;;;2.25;;
4517;SDS011;2271;49.464;11.070;2023-03-23T16:35:38;4.80;;;1.90;;
4517;SDS011;2271;49.464;11.070;2023-03-23T16:38:04;2.70;;;2.40;;
4517;SDS011;2271;49.464;11.070;2023-03-23T16:40:30;3.97;;;1.80;;
4517;SDS011;2271;49.464;11.070;2023-03-23T16:42:57;2.40;;;1.90;;
4517;SDS011;2271;49.464;11.070;2023-03-23T16:45:23;2.53;;;2.03;;
4517;SDS011;2271;49.464;11.070;2023-03-23T16:47:50;2.25;;;1.95;;
4517;SDS011;2271;49.464;11.070;2023-03-23T16:50:16;2.30;;;1.90;;
4517;SDS011;2271;49.464;11.070;2023-03-23T16:52:43;5.25;;;2.45;;
4517;SDS011;2271;49.464;11.070;2023-03-23T16:55:11;14.43;;;5.90;;
4517;SDS011;2271;49.464;11.070;2023-03-23T16:57:39;7.07;;;3.30;;
4517;SDS011;2271;49.464;11.070;2023-03-23T17:00:09;3.15;;;2.38;;
4517;SDS011;2271;49.464;11.070;2023-03-23T17:02:39;4.07;;;2.47;;
4517;SDS011;2271;49.464;11.070;2023-03-23T17:05:07;4.65;;;2.45;;
4517;SDS011;2271;49.464;11.070;2023-03-23T17:07:34;2.20;;;1.75;;
4517;SDS011;2271;49.464;11.070;2023-03-23T17:10:01;4.07;;;2.15;;
4517;SDS011;2271;49.464;11.070;2023-03-23T17:12:26;3.75;;;1.98;;
4517;SDS011;2271;49.464;11.070;2023-03-23T17:14:52;3.00;;;1.90;;
4517;SDS011;2271;49.464;11.070;2023-03-23T17:17:18;3.58;;;2.67;;
4517;SDS011;2271;49.464;11.070;2023-03-23T17:19:43;4.57;;;2.38;;
4517;SDS011;2271;49.464;11.070;2023-03-23T17:22:09;3.97;;;3.00;;
4517;SDS011;2271;49.464;11.070;2023-03-23T17:24:35;8.90;;;3.25;;
4517;SDS011;2271;49.464;11.070;2023-03-23T17:27:00;6.00;;;3.08;;
4517;SDS011;2271;49.464;11.070;2023-03-23T17:29:26;3.45;;;2.42;;
4517;SDS011;2271;49.464;11.070;2023-03-23T17:31:51;9.15;;;3.00;;
4517;SDS011;2271;49.464;11.070;2023-03-23T17:34:17;5.50;;;3.08;;
4517;SDS011;2271;49.464;11.070;2023-03-23T17:36:43;5.82;;;3.00;;